sensor_id;sensor_type;location;lat;lon;timestamp;pressure;altitude;pressure_sealevel;temperature;humidity
56689;BME280;42565;53.342;-1.534;2023-02-12T00:01:09;101097.23;;;11.42;47.71
56689;BME280;42565;53.342;-1.534;2023-02-12T00:03:37;101092.00;;;11.21;47.91
56689;BME280;42565;53.342;-1.534;2023-02-12T00:06:06;101084.74;;;11.01;48.36
56689;BME280;42565;53.342;-1.534;2023-02-12T00:08:34;101088.70;;;11.17;49.01
56689;BME280;42565;53.342;-1.534;2023-02-12T00:11:07;101094.60;;;11.32;48.72
56689;BME280;42565;53.342;-1.534;2023-02-12T00:13:34;101087.19;;;11.14;48.60
56689;BME280;42565;53.342;-1.534;2023-02-12T00:16:04;101080.68;;;11.88;47.65
56689;BME280;42565;53.342;-1.534;2023-02-12T00:18:31;101081.46;;;11.84;47.71
56689;BME280;42565;53.342;-1.534;2023-02-12T00:20:59;101080.13;;;11.63;48.43
56689;BME280;42565;53.342;-1.534;2023-02-12T00:23:26;101078.88;;;11.93;47.35
56689;BME280;42565;53.342;-1.534;2023-02-12T00:25:53;101072.64;;;11.34;48.66
56689;BME280;42565;53.342;-1.534;2023-02-12T00:28:21;101070.69;;;10.96;48.69
56689;BME280;42565;53.342;-1.534;2023-02-12T00:30:48;101075.62;;;11.08;48.97
56689;BME280;42565;53.342;-1.534;2023-02-12T00:33:15;101071.32;;;10.92;49.09
56689;BME280;42565;53.342;-1.534;2023-02-12T00:35:43;101061.47;;;10.75;48.65
56689;BME280;42565;53.342;-1.534;2023-02-12T00:38:10;101056.75;;;11.15;48.80
56689;BME280;42565;53.342;-1.534;2023-02-12T00:40:37;101060.70;;;11.48;48.06
56689;BME280;42565;53.342;-1.534;2023-02-12T00:43:05;101064.26;;;11.38;47.83
56689;BME280;42565;53.342;-1.534;2023-02-12T00:45:32;101058.86;;;11.22;48.02
56689;BME280;42565;53.342;-1.534;2023-02-12T00:47:59;101054.94;;;10.70;49.21
56689;BME280;42565;53.342;-1.534;2023-02-12T00:50:26;101060.39;;;10.89;49.39
56689;BME280;42565;53.342;-1.534;2023-02-12T00:52:53;101056.27;;;11.15;49.11
56689;BME280;42565;53.342;-1.534;2023-02-12T00:55:20;101052.97;;;11.17;49.04
56689;BME280;42565;53.342;-1.534;2023-02-12T00:57:47;101049.28;;;11.14;48.72
56689;BME280;42565;53.342;-1.534;2023-02-12T01:00:15;101047.84;;;10.73;48.86
56689;BME280;42565;53.342;-1.534;2023-02-12T01:02:42;101048.62;;;11.28;48.78
56689;BME280;42565;53.342;-1.534;2023-02-12T01:05:09;101044.40;;;11.25;48.77
56689;BME280;42565;53.342;-1.534;2023-02-12T01:07:36;101049.97;;;11.32;48.25
56689;BME280;42565;53.342;-1.534;2023-02-12T01:10:05;101051.85;;;11.37;47.69
56689;BME280;42565;53.342;-1.534;2023-02-12T01:12:32;101056.47;;;11.26;47.38
56689;BME280;42565;53.342;-1.534;2023-02-12T01:15:00;101051.01;;;11.00;47.93
56689;BME280;42565;53.342;-1.534;2023-02-12T01:17:27;101042.52;;;11.26;47.98
56689;BME280;42565;53.342;-1.534;2023-02-12T01:19:57;101047.69;;;11.38;49.16
56689;BME280;42565;53.342;-1.534;2023-02-12T01:22:24;101055.42;;;11.47;48.10
56689;BME280;42565;53.342;-1.534;2023-02-12T01:24:51;101050.94;;;11.26;47.78
56689;BME280;42565;53.342;-1.534;2023-02-12T01:27:18;101048.82;;;11.65;46.82
56689;BME280;42565;53.342;-1.534;2023-02-12T01:29:46;101050.69;;;11.56;47.09
56689;BME280;42565;53.342;-1.534;2023-02-12T01:32:13;101052.22;;;10.81;48.59
56689;BME280;42565;53.342;-1.534;2023-02-12T01:34:41;101050.23;;;11.06;47.86
56689;BME280;42565;53.342;-1.534;2023-02-12T01:37:07;101050.22;;;11.07;48.16
56689;BME280;42565;53.342;-1.534;2023-02-12T01:39:35;101048.03;;;11.30;47.41
56689;BME280;42565;53.342;-1.534;2023-02-12T01:42:03;101051.53;;;11.17;47.56
56689;BME280;42565;53.342;-1.534;2023-02-12T01:44:31;101052.58;;;11.26;46.84
56689;BME280;42565;53.342;-1.534;2023-02-12T01:47:00;101047.23;;;11.39;46.98
56689;BME280;42565;53.342;-1.534;2023-02-12T01:49:30;101051.64;;;10.66;46.77
56689;BME280;42565;53.342;-1.534;2023-02-12T01:52:03;101048.96;;;10.81;47.77
56689;BME280;42565;53.342;-1.534;2023-02-12T01:54:33;101042.15;;;10.80;47.31
56689;BME280;42565;53.342;-1.534;2023-02-12T01:57:02;101043.95;;;10.91;47.07
56689;BME280;42565;53.342;-1.534;2023-02-12T01:59:32;101046.10;;;10.90;47.73
56689;BME280;42565;53.342;-1.534;2023-02-12T02:02:00;101040.46;;;10.49;47.31
56689;BME280;42565;53.342;-1.534;2023-02-12T02:04:29;101042.45;;;10.58;47.34
56689;BME280;42565;53.342;-1.534;2023-02-12T02:07:00;101045.19;;;10.98;46.93
56689;BME280;42565;53.342;-1.534;2023-02-12T02:09:30;101048.49;;;10.84;47.03
56689;BME280;42565;53.342;-1.534;2023-02-12T02:11:58;101051.17;;;11.04;46.77
56689;BME280;42565;53.342;-1.534;2023-02-12T02:14:26;101053.72;;;10.95;47.06
56689;BME280;42565;53.342;-1.534;2023-02-12T02:17:02;101055.39;;;11.13;46.61
56689;BME280;42565;53.342;-1.534;2023-02-12T02:19:49;101059.24;;;11.04;46.66
56689;BME280;42565;53.342;-1.534;2023-02-12T02:22:27;101058.79;;;11.26;45.62
56689;BME280;42565;53.342;-1.534;2023-02-12T02:25:31;101049.62;;;10.81;46.40
56689;BME280;42565;53.342;-1.534;2023-02-12T02:28:14;101051.72;;;11.44;45.59
56689;BME280;42565;53.342;-1.534;2023-02-12T02:30:45;101056.10;;;11.68;44.88
56689;BME280;42565;53.342;-1.534;2023-02-12T02:33:28;101054.11;;;11.32;45.09
56689;BME280;42565;53.342;-1.534;2023-02-12T02:36:11;101052.69;;;10.82;46.15
56689;BME280;42565;53.342;-1.534;2023-02-12T02:38:42;101051.12;;;10.62;47.15
56689;BME280;42565;53.342;-1.534;2023-02-12T02:41:16;101041.53;;;10.80;47.45
56689;BME280;42565;53.342;-1.534;2023-02-12T02:43:48;101044.36;;;11.12;46.59
56689;BME280;42565;53.342;-1.534;2023-02-12T02:46:21;101042.59;;;10.86;46.31
56689;BME280;42565;53.342;-1.534;2023-02-12T02:48:52;101035.83;;;11.33;46.25
56689;BME280;42565;53.342;-1.534;2023-02-12T02:51:23;101039.86;;;11.04;45.52
56689;BME280;42565;53.342;-1.534;2023-02-12T02:53:55;101040.87;;;11.21;44.87
56689;BME280;42565;53.342;-1.534;2023-02-12T02:56:23;101032.50;;;11.29;45.10
56689;BME280;42565;53.342;-1.534;2023-02-12T02:58:56;101035.43;;;10.85;45.41
56689;BME280;42565;53.342;-1.534;2023-02-12T03:01:28;101040.67;;;10.82;46.34
56689;BME280;42565;53.342;-1.534;2023-02-12T03:04:02;101035.01;;;10.87;45.85
56689;BME280;42565;53.342;-1.534;2023-02-12T03:06:35;101034.05;;;11.12;45.93
56689;BME280;42565;53.342;-1.534;2023-02-12T03:09:10;101040.91;;;11.48;45.46
56689;BME280;42565;53.342;-1.534;2023-02-12T03:11:39;101038.14;;;10.85;45.85
56689;BME280;42565;53.342;-1.534;2023-02-12T03:14:12;101038.89;;;11.49;45.70
56689;BME280;42565;53.342;-1.534;2023-02-12T03:16:48;101043.54;;;11.59;44.91
56689;BME280;42565;53.342;-1.534;2023-02-12T03:19:20;101037.35;;;11.39;44.72
56689;BME280;42565;53.342;-1.534;2023-02-12T03:21:51;101034.51;;;11.33;45.25
56689;BME280;42565;53.342;-1.534;2023-02-12T03:24:23;101040.54;;;11.05;46.05
56689;BME280;42565;53.342;-1.534;2023-02-12T03:26:58;101038.87;;;11.08;46.10
56689;BME280;42565;53.342;-1.534;2023-02-12T03:29:28;101034.71;;;11.20;46.12
56689;BME280;42565;53.342;-1.534;2023-02-12T03:32:06;101031.36;;;11.05;46.21
56689;BME280;42565;53.342;-1.534;2023-02-12T03:34:46;101030.29;;;11.06;45.69
56689;BME280;42565;53.342;-1.534;2023-02-12T03:37:18;101028.02;;;11.30;46.02
56689;BME280;42565;53.342;-1.534;2023-02-12T03:39:52;101031.95;;;11.20;46.08
56689;BME280;42565;53.342;-1.534;2023-02-12T03:42:31;101031.56;;;10.77;46.73
56689;BME280;42565;53.342;-1.534;2023-02-12T03:45:03;101036.47;;;10.79;47.02
56689;BME280;42565;53.342;-1.534;2023-02-12T03:47:40;101036.21;;;10.66;47.59
56689;BME280;42565;53.342;-1.534;2023-02-12T03:50:12;101036.21;;;10.58;48.53
56689;BME280;42565;53.342;-1.534;2023-02-12T03:52:42;101041.13;;;11.10;48.11
56689;BME280;42565;53.342;-1.534;2023-02-12T03:55:11;101043.18;;;10.62;48.58
56689;BME280;42565;53.342;-1.534;2023-02-12T03:57:41;101035.57;;;10.49;47.89
56689;BME280;42565;53.342;-1.534;2023-02-12T04:00:13;101039.32;;;10.10;48.17
56689;BME280;42565;53.342;-1.534;2023-02-12T04:02:42;101038.53;;;10.43;47.28
56689;BME280;42565;53.342;-1.534;2023-02-12T04:05:17;101038.29;;;9.96;47.52
56689;BME280;42565;53.342;-1.534;2023-02-12T04:07:45;101044.23;;;10.14;48.35
56689;BME280;42565;53.342;-1.534;2023-02-12T04:10:12;101044.38;;;9.83;48.88
56689;BME280;42565;53.342;-1.534;2023-02-12T04:12:45;101044.67;;;10.22;49.02
56689;BME280;42565;53.342;-1.534;2023-02-12T04:15:28;101044.10;;;10.62;48.21
56689;BME280;42565;53.342;-1.534;2023-02-12T04:18:02;101048.55;;;10.59;48.07
56689;BME280;42565;53.342;-1.534;2023-02-12T04:20:41;101048.08;;;10.57;48.47
56689;BME280;42565;53.342;-1.534;2023-02-12T04:23:22;101045.63;;;10.70;49.25
56689;BME280;42565;53.342;-1.534;2023-02-12T04:26:01;101047.67;;;10.68;48.60
56689;BME280;42565;53.342;-1.534;2023-02-12T04:28:37;101048.03;;;10.88;48.28
56689;BME280;42565;53.342;-1.534;2023-02-12T04:31:14;101047.59;;;10.54;48.34
56689;BME280;42565;53.342;-1.534;2023-02-12T04:33:50;101046.81;;;10.44;47.93
56689;BME280;42565;53.342;-1.534;2023-02-12T04:36:22;101046.00;;;10.35;48.08
56689;BME280;42565;53.342;-1.534;2023-02-12T04:38:54;101049.97;;;9.91;50.65
56689;BME280;42565;53.342;-1.534;2023-02-12T04:41:23;101055.19;;;10.12;51.15
56689;BME280;42565;53.342;-1.534;2023-02-12T04:43:51;101058.57;;;10.05;51.27
56689;BME280;42565;53.342;-1.534;2023-02-12T04:46:19;101055.02;;;9.81;51.01
56689;BME280;42565;53.342;-1.534;2023-02-12T04:48:51;101057.90;;;9.84;50.15
56689;BME280;42565;53.342;-1.534;2023-02-12T04:51:19;101055.35;;;10.25;50.40
56689;BME280;42565;53.342;-1.534;2023-02-12T04:53:46;101054.10;;;10.12;50.07
56689;BME280;42565;53.342;-1.534;2023-02-12T04:56:13;101054.15;;;10.36;50.16
56689;BME280;42565;53.342;-1.534;2023-02-12T04:58:41;101058.09;;;9.80;50.58
56689;BME280;42565;53.342;-1.534;2023-02-12T05:01:09;101053.98;;;9.90;50.47
56689;BME280;42565;53.342;-1.534;2023-02-12T05:03:36;101052.01;;;10.16;50.44
56689;BME280;42565;53.342;-1.534;2023-02-12T05:06:05;101050.16;;;10.33;48.27
56689;BME280;42565;53.342;-1.534;2023-02-12T05:08:32;101052.89;;;9.79;48.76
56689;BME280;42565;53.342;-1.534;2023-02-12T05:11:03;101051.90;;;9.80;48.58
56689;BME280;42565;53.342;-1.534;2023-02-12T05:13:30;101051.09;;;9.93;50.94
56689;BME280;42565;53.342;-1.534;2023-02-12T05:15:56;101054.51;;;9.70;51.52
56689;BME280;42565;53.342;-1.534;2023-02-12T05:18:23;101046.02;;;9.72;50.39
56689;BME280;42565;53.342;-1.534;2023-02-12T05:20:55;101036.93;;;10.30;49.90
56689;BME280;42565;53.342;-1.534;2023-02-12T05:23:22;101038.07;;;10.26;49.24
56689;BME280;42565;53.342;-1.534;2023-02-12T05:25:48;101036.78;;;10.42;49.00
56689;BME280;42565;53.342;-1.534;2023-02-12T05:28:16;101036.48;;;10.46;49.06
56689;BME280;42565;53.342;-1.534;2023-02-12T05:30:43;101044.85;;;10.40;48.41
56689;BME280;42565;53.342;-1.534;2023-02-12T05:33:10;101050.30;;;9.66;51.90
56689;BME280;42565;53.342;-1.534;2023-02-12T05:35:37;101047.72;;;9.50;52.21
56689;BME280;42565;53.342;-1.534;2023-02-12T05:38:04;101045.01;;;10.18;51.03
56689;BME280;42565;53.342;-1.534;2023-02-12T05:40:30;101040.05;;;10.07;50.34
56689;BME280;42565;53.342;-1.534;2023-02-12T05:42:57;101035.58;;;10.26;49.14
56689;BME280;42565;53.342;-1.534;2023-02-12T05:45:24;101033.50;;;10.28;49.57
56689;BME280;42565;53.342;-1.534;2023-02-12T05:47:51;101026.42;;;10.18;50.06
56689;BME280;42565;53.342;-1.534;2023-02-12T05:50:17;101031.64;;;10.11;49.98
56689;BME280;42565;53.342;-1.534;2023-02-12T05:52:44;101032.15;;;10.15;49.90
56689;BME280;42565;53.342;-1.534;2023-02-12T05:55:11;101037.00;;;10.51;48.85
56689;BME280;42565;53.342;-1.534;2023-02-12T05:57:39;101033.13;;;10.66;49.44
56689;BME280;42565;53.342;-1.534;2023-02-12T06:00:08;101033.96;;;10.78;48.90
56689;BME280;42565;53.342;-1.534;2023-02-12T06:02:35;101030.13;;;11.00;48.44
56689;BME280;42565;53.342;-1.534;2023-02-12T06:05:03;101024.29;;;10.58;48.44
56689;BME280;42565;53.342;-1.534;2023-02-12T06:07:30;101028.43;;;10.61;48.75
56689;BME280;42565;53.342;-1.534;2023-02-12T06:09:58;101030.88;;;10.84;48.46
56689;BME280;42565;53.342;-1.534;2023-02-12T06:12:25;101028.54;;;10.82;49.18
56689;BME280;42565;53.342;-1.534;2023-02-12T06:14:51;101026.24;;;10.94;48.65
56689;BME280;42565;53.342;-1.534;2023-02-12T06:17:18;101025.87;;;10.73;48.31
56689;BME280;42565;53.342;-1.534;2023-02-12T06:19:45;101027.52;;;10.21;49.01
56689;BME280;42565;53.342;-1.534;2023-02-12T06:22:12;101024.97;;;10.32;49.15
56689;BME280;42565;53.342;-1.534;2023-02-12T06:24:39;101025.68;;;10.10;49.25
56689;BME280;42565;53.342;-1.534;2023-02-12T06:27:07;101023.98;;;10.22;49.32
56689;BME280;42565;53.342;-1.534;2023-02-12T06:29:34;101023.31;;;10.70;49.37
56689;BME280;42565;53.342;-1.534;2023-02-12T06:32:01;101023.21;;;10.22;49.73
56689;BME280;42565;53.342;-1.534;2023-02-12T06:34:27;101033.50;;;9.89;51.53
56689;BME280;42565;53.342;-1.534;2023-02-12T06:36:54;101032.30;;;9.26;52.01
56689;BME280;42565;53.342;-1.534;2023-02-12T06:39:21;101040.05;;;9.58;51.93
56689;BME280;42565;53.342;-1.534;2023-02-12T06:41:48;101036.04;;;10.11;51.22
56689;BME280;42565;53.342;-1.534;2023-02-12T06:44:15;101036.74;;;10.35;50.62
56689;BME280;42565;53.342;-1.534;2023-02-12T06:46:42;101039.25;;;10.15;50.26
56689;BME280;42565;53.342;-1.534;2023-02-12T06:49:11;101035.31;;;10.39;50.22
56689;BME280;42565;53.342;-1.534;2023-02-12T06:51:38;101035.20;;;10.53;49.92
56689;BME280;42565;53.342;-1.534;2023-02-12T06:54:05;101039.56;;;10.31;50.44
56689;BME280;42565;53.342;-1.534;2023-02-12T06:56:37;101039.47;;;10.50;50.55
56689;BME280;42565;53.342;-1.534;2023-02-12T06:59:04;101040.57;;;10.60;50.20
56689;BME280;42565;53.342;-1.534;2023-02-12T07:01:31;101044.14;;;10.62;49.95
56689;BME280;42565;53.342;-1.534;2023-02-12T07:04:00;101041.82;;;10.10;51.09
56689;BME280;42565;53.342;-1.534;2023-02-12T07:06:30;101045.02;;;10.16;51.14
56689;BME280;42565;53.342;-1.534;2023-02-12T07:08:57;101052.11;;;10.66;50.60
56689;BME280;42565;53.342;-1.534;2023-02-12T07:11:26;101050.74;;;10.33;50.57
56689;BME280;42565;53.342;-1.534;2023-02-12T07:13:53;101044.24;;;10.76;50.24
56689;BME280;42565;53.342;-1.534;2023-02-12T07:16:21;101043.64;;;10.35;50.72
56689;BME280;42565;53.342;-1.534;2023-02-12T07:18:48;101044.72;;;10.47;50.88
56689;BME280;42565;53.342;-1.534;2023-02-12T07:21:16;101052.47;;;10.28;51.53
56689;BME280;42565;53.342;-1.534;2023-02-12T07:23:46;101054.02;;;10.19;52.40
56689;BME280;42565;53.342;-1.534;2023-02-12T07:26:14;101054.54;;;10.23;51.70
56689;BME280;42565;53.342;-1.534;2023-02-12T07:28:41;101051.54;;;10.30;51.60
56689;BME280;42565;53.342;-1.534;2023-02-12T07:31:12;101051.65;;;10.15;52.09
56689;BME280;42565;53.342;-1.534;2023-02-12T07:33:39;101053.12;;;9.55;52.90
56689;BME280;42565;53.342;-1.534;2023-02-12T07:36:09;101052.11;;;10.14;52.65
56689;BME280;42565;53.342;-1.534;2023-02-12T07:38:36;101049.49;;;10.43;52.13
56689;BME280;42565;53.342;-1.534;2023-02-12T07:41:08;101051.64;;;9.98;52.13
56689;BME280;42565;53.342;-1.534;2023-02-12T07:43:37;101045.66;;;10.23;51.69
56689;BME280;42565;53.342;-1.534;2023-02-12T07:46:07;101046.73;;;10.47;50.99
56689;BME280;42565;53.342;-1.534;2023-02-12T07:48:35;101051.05;;;10.45;50.95
56689;BME280;42565;53.342;-1.534;2023-02-12T07:51:05;101054.05;;;10.79;50.43
56689;BME280;42565;53.342;-1.534;2023-02-12T07:53:32;101056.93;;;9.84;51.18
56689;BME280;42565;53.342;-1.534;2023-02-12T07:56:09;101058.81;;;10.34;51.87
56689;BME280;42565;53.342;-1.534;2023-02-12T07:58:36;101060.11;;;10.21;51.43
56689;BME280;42565;53.342;-1.534;2023-02-12T08:01:13;101064.74;;;10.26;51.58
56689;BME280;42565;53.342;-1.534;2023-02-12T08:03:42;101060.73;;;10.40;51.23
56689;BME280;42565;53.342;-1.534;2023-02-12T08:06:11;101063.01;;;10.39;51.26
56689;BME280;42565;53.342;-1.534;2023-02-12T08:08:39;101066.23;;;10.65;50.96
56689;BME280;42565;53.342;-1.534;2023-02-12T08:11:09;101061.06;;;9.90;51.98
56689;BME280;42565;53.342;-1.534;2023-02-12T08:13:37;101066.64;;;9.57;52.82
56689;BME280;42565;53.342;-1.534;2023-02-12T08:16:06;101071.50;;;9.76;52.88
56689;BME280;42565;53.342;-1.534;2023-02-12T08:18:34;101075.37;;;10.18;52.73
56689;BME280;42565;53.342;-1.534;2023-02-12T08:21:02;101079.20;;;9.96;52.76
56689;BME280;42565;53.342;-1.534;2023-02-12T08:23:30;101078.73;;;10.22;52.48
56689;BME280;42565;53.342;-1.534;2023-02-12T08:26:07;101071.10;;;9.95;53.27
56689;BME280;42565;53.342;-1.534;2023-02-12T08:28:36;101076.58;;;9.80;53.64
56689;BME280;42565;53.342;-1.534;2023-02-12T08:31:06;101084.22;;;9.39;53.01
56689;BME280;42565;53.342;-1.534;2023-02-12T08:33:34;101082.11;;;9.46;54.56
56689;BME280;42565;53.342;-1.534;2023-02-12T08:36:03;101075.63;;;10.31;53.54
56689;BME280;42565;53.342;-1.534;2023-02-12T08:38:32;101069.15;;;10.17;52.64
56689;BME280;42565;53.342;-1.534;2023-02-12T08:41:01;101068.61;;;9.87;52.50
56689;BME280;42565;53.342;-1.534;2023-02-12T08:43:29;101077.02;;;9.23;55.27
56689;BME280;42565;53.342;-1.534;2023-02-12T08:46:01;101073.51;;;9.88;53.67
56689;BME280;42565;53.342;-1.534;2023-02-12T08:48:29;101068.82;;;10.05;53.14
56689;BME280;42565;53.342;-1.534;2023-02-12T08:51:03;101079.16;;;9.21;55.89
56689;BME280;42565;53.342;-1.534;2023-02-12T08:53:30;101070.31;;;8.78;57.22
56689;BME280;42565;53.342;-1.534;2023-02-12T08:55:57;101074.03;;;8.28;59.29
56689;BME280;42565;53.342;-1.534;2023-02-12T08:58:24;101074.22;;;8.63;58.95
56689;BME280;42565;53.342;-1.534;2023-02-12T09:00:52;101076.82;;;8.78;59.02
56689;BME280;42565;53.342;-1.534;2023-02-12T09:03:18;101073.10;;;8.89;58.09
56689;BME280;42565;53.342;-1.534;2023-02-12T09:05:45;101079.49;;;8.95;57.43
56689;BME280;42565;53.342;-1.534;2023-02-12T09:08:12;101080.76;;;9.35;57.05
56689;BME280;42565;53.342;-1.534;2023-02-12T09:10:40;101078.28;;;8.89;57.34
56689;BME280;42565;53.342;-1.534;2023-02-12T09:13:08;101078.29;;;8.99;57.71
56689;BME280;42565;53.342;-1.534;2023-02-12T09:15:37;101076.47;;;8.86;57.50
56689;BME280;42565;53.342;-1.534;2023-02-12T09:18:05;101073.53;;;8.61;57.39
56689;BME280;42565;53.342;-1.534;2023-02-12T09:20:32;101074.31;;;9.19;56.24
56689;BME280;42565;53.342;-1.534;2023-02-12T09:23:02;101074.12;;;9.29;56.82
56689;BME280;42565;53.342;-1.534;2023-02-12T09:25:29;101072.61;;;8.83;57.18
56689;BME280;42565;53.342;-1.534;2023-02-12T09:27:56;101076.89;;;8.52;58.98
56689;BME280;42565;53.342;-1.534;2023-02-12T09:30:24;101071.04;;;8.84;57.89
56689;BME280;42565;53.342;-1.534;2023-02-12T09:32:51;101067.53;;;10.01;56.04
56689;BME280;42565;53.342;-1.534;2023-02-12T09:35:18;101063.47;;;9.40;55.32
56689;BME280;42565;53.342;-1.534;2023-02-12T09:37:45;101066.61;;;9.14;56.44
56689;BME280;42565;53.342;-1.534;2023-02-12T09:40:21;101067.07;;;8.87;56.78
56689;BME280;42565;53.342;-1.534;2023-02-12T09:42:58;101073.11;;;8.46;57.64
56689;BME280;42565;53.342;-1.534;2023-02-12T09:45:33;101069.81;;;8.31;58.25
56689;BME280;42565;53.342;-1.534;2023-02-12T09:48:13;101063.62;;;8.82;57.51
56689;BME280;42565;53.342;-1.534;2023-02-12T09:50:49;101066.85;;;8.76;57.71
56689;BME280;42565;53.342;-1.534;2023-02-12T09:53:20;101062.87;;;9.25;56.08
56689;BME280;42565;53.342;-1.534;2023-02-12T09:55:49;101058.22;;;9.19;56.03
56689;BME280;42565;53.342;-1.534;2023-02-12T09:58:23;101060.45;;;8.42;55.64
56689;BME280;42565;53.342;-1.534;2023-02-12T10:00:54;101056.77;;;8.72;55.02
56689;BME280;42565;53.342;-1.534;2023-02-12T10:03:21;101062.84;;;8.77;55.98
56689;BME280;42565;53.342;-1.534;2023-02-12T10:05:50;101058.17;;;8.73;56.65
56689;BME280;42565;53.342;-1.534;2023-02-12T10:08:33;101059.40;;;8.69;56.64
56689;BME280;42565;53.342;-1.534;2023-02-12T10:11:34;101057.09;;;8.74;57.93
56689;BME280;42565;53.342;-1.534;2023-02-12T10:14:15;101063.87;;;8.42;57.78
56689;BME280;42565;53.342;-1.534;2023-02-12T10:16:52;101061.48;;;8.86;58.45
56689;BME280;42565;53.342;-1.534;2023-02-12T10:19:30;101061.13;;;9.12;56.80
56689;BME280;42565;53.342;-1.534;2023-02-12T10:22:09;101062.16;;;9.72;55.62
56689;BME280;42565;53.342;-1.534;2023-02-12T10:25:02;101063.35;;;8.86;55.59
56689;BME280;42565;53.342;-1.534;2023-02-12T10:27:38;101065.24;;;8.76;57.49
56689;BME280;42565;53.342;-1.534;2023-02-12T10:30:18;101072.92;;;8.54;56.93
56689;BME280;42565;53.342;-1.534;2023-02-12T10:32:49;101075.66;;;7.64;59.22
56689;BME280;42565;53.342;-1.534;2023-02-12T10:35:18;101075.08;;;7.80;59.01
56689;BME280;42565;53.342;-1.534;2023-02-12T10:37:51;101076.65;;;8.14;58.22
56689;BME280;42565;53.342;-1.534;2023-02-12T10:40:24;101069.85;;;8.16;56.41
56689;BME280;42565;53.342;-1.534;2023-02-12T10:42:52;101067.69;;;8.22;57.55
56689;BME280;42565;53.342;-1.534;2023-02-12T10:45:23;101071.60;;;7.88;57.51
56689;BME280;42565;53.342;-1.534;2023-02-12T10:47:53;101067.29;;;8.50;56.29
56689;BME280;42565;53.342;-1.534;2023-02-12T10:50:37;101069.97;;;8.49;55.12
56689;BME280;42565;53.342;-1.534;2023-02-12T10:53:14;101071.50;;;8.83;54.61
56689;BME280;42565;53.342;-1.534;2023-02-12T10:55:42;101075.59;;;7.78;56.06
56689;BME280;42565;53.342;-1.534;2023-02-12T10:58:18;101072.02;;;7.59;56.11
56689;BME280;42565;53.342;-1.534;2023-02-12T11:00:55;101078.45;;;7.12;57.93
56689;BME280;42565;53.342;-1.534;2023-02-12T11:03:27;101069.92;;;7.46;57.58
56689;BME280;42565;53.342;-1.534;2023-02-12T11:05:56;101073.24;;;7.25;57.72
56689;BME280;42565;53.342;-1.534;2023-02-12T11:08:36;101073.90;;;7.68;57.29
56689;BME280;42565;53.342;-1.534;2023-02-12T11:11:08;101074.34;;;7.50;58.06
56689;BME280;42565;53.342;-1.534;2023-02-12T11:13:36;101073.32;;;7.18;58.79
56689;BME280;42565;53.342;-1.534;2023-02-12T11:16:05;101069.74;;;7.46;59.61
56689;BME280;42565;53.342;-1.534;2023-02-12T11:18:33;101067.13;;;7.35;58.13
56689;BME280;42565;53.342;-1.534;2023-02-12T11:21:02;101067.65;;;7.50;57.03
56689;BME280;42565;53.342;-1.534;2023-02-12T11:23:31;101067.82;;;7.72;56.33
56689;BME280;42565;53.342;-1.534;2023-02-12T11:26:00;101067.66;;;8.32;55.75
56689;BME280;42565;53.342;-1.534;2023-02-12T11:28:29;101065.64;;;7.87;56.51
56689;BME280;42565;53.342;-1.534;2023-02-12T11:30:58;101076.75;;;8.26;56.83
56689;BME280;42565;53.342;-1.534;2023-02-12T11:33:29;101066.26;;;7.28;59.01
56689;BME280;42565;53.342;-1.534;2023-02-12T11:35:58;101061.65;;;7.77;57.76
56689;BME280;42565;53.342;-1.534;2023-02-12T11:38:30;101055.70;;;7.52;57.26
56689;BME280;42565;53.342;-1.534;2023-02-12T11:41:02;101059.05;;;7.80;57.64
56689;BME280;42565;53.342;-1.534;2023-02-12T11:43:32;101063.29;;;7.48;57.39
56689;BME280;42565;53.342;-1.534;2023-02-12T11:46:01;101064.20;;;7.56;57.72
56689;BME280;42565;53.342;-1.534;2023-02-12T11:48:31;101055.11;;;7.37;59.40
56689;BME280;42565;53.342;-1.534;2023-02-12T11:51:02;101060.03;;;7.16;58.90
56689;BME280;42565;53.342;-1.534;2023-02-12T11:53:33;101059.53;;;6.61;59.75
56689;BME280;42565;53.342;-1.534;2023-02-12T11:56:03;101056.75;;;6.95;59.99
56689;BME280;42565;53.342;-1.534;2023-02-12T11:58:31;101060.52;;;7.16;59.51
56689;BME280;42565;53.342;-1.534;2023-02-12T12:01:05;101059.40;;;6.64;59.90
56689;BME280;42565;53.342;-1.534;2023-02-12T12:03:41;101062.02;;;6.47;60.53
56689;BME280;42565;53.342;-1.534;2023-02-12T12:06:21;101058.38;;;6.60;60.52
56689;BME280;42565;53.342;-1.534;2023-02-12T12:08:55;101053.17;;;7.06;59.92
56689;BME280;42565;53.342;-1.534;2023-02-12T12:11:27;101049.66;;;7.39;58.65
56689;BME280;42565;53.342;-1.534;2023-02-12T12:14:00;101046.98;;;7.27;59.46
56689;BME280;42565;53.342;-1.534;2023-02-12T12:16:32;101044.04;;;7.32;58.38
56689;BME280;42565;53.342;-1.534;2023-02-12T12:19:04;101054.62;;;7.44;58.25
56689;BME280;42565;53.342;-1.534;2023-02-12T12:21:38;101043.81;;;7.30;58.55
56689;BME280;42565;53.342;-1.534;2023-02-12T12:24:12;101037.10;;;7.37;59.75
56689;BME280;42565;53.342;-1.534;2023-02-12T12:26:45;101027.80;;;7.02;60.14
56689;BME280;42565;53.342;-1.534;2023-02-12T12:29:18;101030.41;;;7.44;58.84
56689;BME280;42565;53.342;-1.534;2023-02-12T12:31:52;101032.19;;;6.98;59.28
56689;BME280;42565;53.342;-1.534;2023-02-12T12:34:24;101024.05;;;7.25;58.37
56689;BME280;42565;53.342;-1.534;2023-02-12T12:37:05;101021.82;;;7.75;57.29
56689;BME280;42565;53.342;-1.534;2023-02-12T12:39:40;101026.11;;;7.03;57.83
56689;BME280;42565;53.342;-1.534;2023-02-12T12:42:28;101020.52;;;7.64;57.92
56689;BME280;42565;53.342;-1.534;2023-02-12T12:45:09;101016.62;;;7.25;58.25
56689;BME280;42565;53.342;-1.534;2023-02-12T12:47:51;101009.52;;;7.18;58.76
56689;BME280;42565;53.342;-1.534;2023-02-12T12:50:29;101004.73;;;7.28;57.99
56689;BME280;42565;53.342;-1.534;2023-02-12T12:53:10;100999.91;;;7.44;58.94
56689;BME280;42565;53.342;-1.534;2023-02-12T12:55:52;100998.77;;;7.60;58.03
56689;BME280;42565;53.342;-1.534;2023-02-12T12:58:34;100997.15;;;7.69;58.14
56689;BME280;42565;53.342;-1.534;2023-02-12T13:01:24;100991.19;;;7.96;57.03
56689;BME280;42565;53.342;-1.534;2023-02-12T13:04:53;100999.84;;;7.42;57.70